createdAt,value
2019-04-04T00:01:18.420Z,87.77
2019-04-04T00:04:23.660Z,87.02
2019-04-04T00:07:28.993Z,85.60
2019-04-04T00:10:35.278Z,85.57
2019-04-04T00:13:44.237Z,85.80
2019-04-04T00:16:49.372Z,86.24
2019-04-04T00:19:54.695Z,85.68
2019-04-04T00:22:59.856Z,86.00
2019-04-04T00:26:05.038Z,88.56
2019-04-04T00:29:10.157Z,89.16
2019-04-04T00:32:15.372Z,89.76
2019-04-04T00:35:20.542Z,89.82
2019-04-04T00:38:25.745Z,89.95
2019-04-04T00:41:30.924Z,89.70
2019-04-04T00:44:36.059Z,89.26
2019-04-04T00:47:41.676Z,90.26
2019-04-04T00:50:48.038Z,90.12
2019-04-04T00:53:53.506Z,89.88
2019-04-04T00:56:58.824Z,89.61
2019-04-04T01:00:04.456Z,89.95
2019-04-04T01:03:09.830Z,89.53
2019-04-04T01:06:15.011Z,90.76
2019-04-04T01:09:20.372Z,90.99
2019-04-04T01:12:25.732Z,92.27
2019-04-04T01:15:31.770Z,92.88
2019-04-04T01:18:37.585Z,92.17
2019-04-04T01:21:43.048Z,91.93
2019-04-04T01:24:49.365Z,91.03
2019-04-04T01:27:54.670Z,91.55
2019-04-04T01:30:59.865Z,90.12
2019-04-04T01:34:05.035Z,90.43
2019-04-04T01:37:10.271Z,90.27
2019-04-04T01:40:15.587Z,88.54
2019-04-04T01:43:20.700Z,90.09
2019-04-04T01:46:25.868Z,87.42
2019-04-04T01:49:31.079Z,88.37
2019-04-04T01:52:36.297Z,88.41
2019-04-04T01:55:43.513Z,88.49
2019-04-04T01:58:48.423Z,87.77
2019-04-04T02:01:53.647Z,87.05
2019-04-04T02:04:58.841Z,87.28
2019-04-04T02:08:04.004Z,86.26
2019-04-04T02:11:09.180Z,86.32
2019-04-04T02:14:14.338Z,87.56
2019-04-04T02:17:20.086Z,89.54
2019-04-04T02:20:30.150Z,91.24
2019-04-04T02:23:35.271Z,92.38
2019-04-04T02:26:40.455Z,91.99
2019-04-04T02:29:45.662Z,91.97
2019-04-04T02:32:50.894Z,92.58
2019-04-04T02:35:56.014Z,92.73
2019-04-04T02:39:10.341Z,91.57
2019-04-04T02:42:15.508Z,91.37
2019-04-04T02:45:20.745Z,90.75
2019-04-04T02:48:25.951Z,89.77
2019-04-04T02:51:31.066Z,89.85
2019-04-04T02:54:36.339Z,90.26
2019-04-04T02:57:42.588Z,90.46
2019-04-04T03:00:48.002Z,89.85
2019-04-04T03:03:53.145Z,88.40
2019-04-04T03:06:58.796Z,88.27
2019-04-04T03:10:04.700Z,88.08
2019-04-04T03:13:09.887Z,88.06
2019-04-04T03:16:15.057Z,87.53
2019-04-04T03:19:20.209Z,86.65
2019-04-04T03:22:27.552Z,87.71
2019-04-04T03:25:32.166Z,88.17
2019-04-04T03:28:37.321Z,88.18
2019-04-04T03:31:42.595Z,87.43
2019-04-04T03:34:50.375Z,87.87
2019-04-04T03:37:54.960Z,87.06
2019-04-04T03:41:00.208Z,87.80
2019-04-04T03:44:05.357Z,87.95
2019-04-04T03:47:11.415Z,89.68
2019-04-04T03:50:16.655Z,90.63
2019-04-04T03:53:22.767Z,90.78
2019-04-04T03:56:27.930Z,91.45
2019-04-04T03:59:33.198Z,91.18
2019-04-04T04:02:38.358Z,90.82
2019-04-04T04:05:43.635Z,91.04
2019-04-04T04:08:48.857Z,90.75
2019-04-04T04:11:55.045Z,90.01
2019-04-04T04:15:02.195Z,89.75
2019-04-04T04:18:07.435Z,90.71
2019-04-04T04:21:12.601Z,91.00
2019-04-04T04:24:17.767Z,92.07
2019-04-04T04:27:22.922Z,92.58
2019-04-04T04:30:28.123Z,92.37
2019-04-04T04:33:33.235Z,91.72
2019-04-04T04:36:38.345Z,92.12
2019-04-04T04:39:43.580Z,91.85
2019-04-04T04:42:49.942Z,91.87
2019-04-04T04:45:55.083Z,91.48
2019-04-04T04:49:00.616Z,90.69
2019-04-04T04:52:07.049Z,90.53
2019-04-04T04:55:12.325Z,90.19
2019-04-04T04:58:17.423Z,90.37
2019-04-04T05:01:22.614Z,89.16
2019-04-04T05:04:28.206Z,87.63
2019-04-04T05:07:34.078Z,87.32
2019-04-04T05:10:39.198Z,86.52
2019-04-04T05:13:44.337Z,86.76
2019-04-04T05:16:49.494Z,86.87
2019-04-04T05:19:54.718Z,86.75
2019-04-04T05:22:59.882Z,86.40
2019-04-04T05:26:05.119Z,86.39
2019-04-04T05:29:13.173Z,85.16
2019-04-04T05:32:17.140Z,84.33
2019-04-04T05:35:22.279Z,84.67
2019-04-04T05:38:27.520Z,86.03
2019-04-04T05:41:33.648Z,87.33
2019-04-04T05:44:41.230Z,87.87
2019-04-04T05:47:45.753Z,87.40
2019-04-04T05:50:51.020Z,87.95
2019-04-04T05:53:56.222Z,88.14
2019-04-04T05:57:03.302Z,88.01
2019-04-04T06:00:10.920Z,88.81
2019-04-04T06:03:16.126Z,88.74
2019-04-04T06:06:21.345Z,88.61
2019-04-04T06:09:26.573Z,88.52
2019-04-04T06:12:31.749Z,87.94
2019-04-04T06:15:36.961Z,88.60
2019-04-04T06:18:42.995Z,88.82
2019-04-04T06:21:50.017Z,87.05
2019-04-04T06:24:59.094Z,85.39
2019-04-04T06:28:02.808Z,83.77
2019-04-04T06:31:08.032Z,83.23
2019-04-04T06:34:13.185Z,82.95
2019-04-04T06:37:20.024Z,82.60
2019-04-04T06:40:25.272Z,83.07
2019-04-04T06:43:30.450Z,82.09
2019-04-04T06:46:35.631Z,81.60
2019-04-04T06:49:41.031Z,81.59
2019-04-04T06:52:46.211Z,81.82
2019-04-04T06:55:51.389Z,82.45
2019-04-04T06:58:56.509Z,83.53
2019-04-04T07:02:01.691Z,84.51
2019-04-04T07:05:10.615Z,84.44
2019-04-04T07:08:15.922Z,85.20
2019-04-04T07:11:21.830Z,84.27
2019-04-04T07:14:29.989Z,83.86
2019-04-04T07:17:34.158Z,81.45
2019-04-04T07:20:39.302Z,81.10
2019-04-04T07:23:44.414Z,81.95
2019-04-04T07:26:49.533Z,82.18
2019-04-04T07:29:56.602Z,81.51
2019-04-04T07:33:01.622Z,80.95
2019-04-04T07:36:06.831Z,80.60
2019-04-04T07:39:12.463Z,81.19
2019-04-04T07:42:17.944Z,80.33
2019-04-04T07:45:25.979Z,80.21
2019-04-04T07:48:30.397Z,80.63
2019-04-04T07:51:35.627Z,80.47
2019-04-04T07:54:41.018Z,80.57
2019-04-04T07:57:46.216Z,80.49
2019-04-04T08:00:51.421Z,80.41
2019-04-04T08:03:56.587Z,80.83
2019-04-04T08:07:01.786Z,80.53
2019-04-04T08:10:19.850Z,79.87
2019-04-04T08:13:15.345Z,79.86
2019-04-04T08:16:20.555Z,81.28
2019-04-04T08:19:25.783Z,81.37
2019-04-04T08:22:31.128Z,81.44
2019-04-04T08:25:36.326Z,82.28
2019-04-04T08:28:41.668Z,82.60
2019-04-04T08:31:46.901Z,83.28
2019-04-04T08:34:52.107Z,83.46
2019-04-04T08:37:58.385Z,83.33
2019-04-04T08:41:03.579Z,83.48
2019-04-04T08:44:08.718Z,82.96
2019-04-04T08:47:13.954Z,83.31
2019-04-04T08:50:19.199Z,83.25
2019-04-04T08:53:24.516Z,83.85
2019-04-04T08:56:29.733Z,83.24
2019-04-04T08:59:34.997Z,82.59
2019-04-04T09:02:40.281Z,81.00
2019-04-04T09:05:45.454Z,80.99
2019-04-04T09:08:50.651Z,81.88
2019-04-04T09:11:55.815Z,81.31
2019-04-04T09:15:00.977Z,80.87
2019-04-04T09:18:06.269Z,81.47
2019-04-04T09:21:11.428Z,80.54
2019-04-04T09:24:16.599Z,80.56
2019-04-04T09:27:21.904Z,81.29
2019-04-04T09:30:27.263Z,79.77
2019-04-04T09:33:32.473Z,80.38
2019-04-04T09:36:37.707Z,80.15
2019-04-04T09:39:43.024Z,81.29
2019-04-04T09:42:49.350Z,81.47
2019-04-04T09:45:54.511Z,81.39
2019-04-04T09:48:59.778Z,82.11
2019-04-04T09:52:05.155Z,80.98
2019-04-04T09:55:11.527Z,81.08
2019-04-04T09:58:16.657Z,80.39
2019-04-04T10:01:21.924Z,80.95
2019-04-04T10:04:27.148Z,80.65
2019-04-04T10:07:32.487Z,80.03
2019-04-04T10:10:37.711Z,80.45
2019-04-04T10:13:42.931Z,78.33
2019-04-04T10:16:48.141Z,78.50
2019-04-04T10:19:53.318Z,79.09
2019-04-04T10:22:58.604Z,78.39
2019-04-04T10:26:03.878Z,77.92
2019-04-04T10:29:09.221Z,76.73
2019-04-04T10:32:14.428Z,77.67
2019-04-04T10:35:19.609Z,77.10
2019-04-04T10:38:24.852Z,78.54
2019-04-04T10:41:30.215Z,77.58
2019-04-04T10:44:37.226Z,76.51
2019-04-04T10:47:42.595Z,77.78
2019-04-04T10:50:47.946Z,76.72
2019-04-04T10:53:53.202Z,78.33
2019-04-04T10:56:58.509Z,78.15
2019-04-04T11:00:05.184Z,77.59
2019-04-04T11:03:11.114Z,77.22
2019-04-04T11:06:16.375Z,77.69
2019-04-04T11:09:21.618Z,79.39
2019-04-04T11:12:26.869Z,76.48
2019-04-04T11:15:32.103Z,77.91
2019-04-04T11:18:37.343Z,77.11
2019-04-04T11:21:42.644Z,76.65
2019-04-04T11:24:47.821Z,76.12
2019-04-04T11:27:53.097Z,74.55
2019-04-04T11:30:58.330Z,75.50
2019-04-04T11:34:03.533Z,75.84
2019-04-04T11:37:08.803Z,77.71
2019-04-04T11:40:14.183Z,77.48
2019-04-04T11:43:19.527Z,77.99
2019-04-04T11:46:24.701Z,78.53
2019-04-04T11:49:30.004Z,78.44
2019-04-04T11:52:35.303Z,79.02
2019-04-04T11:55:40.542Z,77.74
2019-04-04T11:58:45.823Z,78.83
2019-04-04T12:01:51.450Z,78.27
2019-04-04T12:04:57.957Z,80.22
2019-04-04T12:08:03.348Z,78.55
2019-04-04T12:11:08.568Z,79.32
2019-04-04T12:14:13.739Z,79.44
2019-04-04T12:17:19.033Z,79.36
2019-04-04T12:20:24.280Z,79.17
2019-04-04T12:23:29.533Z,80.08
2019-04-04T12:26:34.763Z,80.09
2019-04-04T12:29:39.997Z,79.71
2019-04-04T12:32:45.345Z,78.67
2019-04-04T12:35:52.444Z,79.64
2019-04-04T12:38:57.554Z,78.76
2019-04-04T12:42:02.775Z,78.31
2019-04-04T12:45:08.349Z,77.17
2019-04-04T12:48:13.754Z,76.45
2019-04-04T12:51:24.697Z,75.62
2019-04-04T13:20:46.161Z,62.57
2019-04-04T13:23:51.318Z,63.34
2019-04-04T13:26:58.233Z,63.04
2019-04-04T13:30:03.627Z,66.28
2019-04-04T13:33:08.802Z,66.83
2019-04-04T13:36:14.029Z,64.69
2019-04-04T13:39:19.476Z,64.01
2019-04-04T13:42:24.805Z,63.80
2019-04-04T13:45:30.105Z,67.88
2019-04-04T13:48:36.394Z,69.85
2019-04-04T13:51:41.791Z,71.90
2019-04-04T13:54:47.127Z,71.23
2019-04-04T13:57:52.348Z,72.70
2019-04-04T14:00:57.692Z,74.71
2019-04-04T14:04:03.977Z,73.36
2019-04-04T14:07:09.377Z,73.75
2019-04-04T14:10:17.377Z,74.21
2019-04-04T14:13:22.246Z,74.88
2019-04-04T14:16:27.400Z,75.52
2019-04-04T14:19:32.573Z,77.06
2019-04-04T14:22:37.830Z,77.20
2019-04-04T14:25:43.291Z,77.11
2019-04-04T14:28:48.523Z,77.98
2019-04-04T14:31:53.841Z,76.13
2019-04-04T14:34:59.199Z,77.11
2019-04-04T14:38:04.617Z,77.17
2019-04-04T14:41:11.500Z,79.43
2019-04-04T14:44:17.081Z,79.93
2019-04-04T14:47:22.344Z,80.87
2019-04-04T14:50:28.209Z,80.07
2019-04-04T14:53:33.586Z,81.24
2019-04-04T14:56:39.876Z,81.15
2019-04-04T14:59:45.224Z,80.61
2019-04-04T15:02:50.394Z,81.39
2019-04-04T15:05:55.639Z,80.75
2019-04-04T15:09:00.883Z,81.53
2019-04-04T15:12:07.647Z,81.79
2019-04-04T15:15:13.464Z,81.13
2019-04-04T15:18:18.649Z,81.08
2019-04-04T15:21:23.965Z,81.86
2019-04-04T15:24:29.223Z,82.12
2019-04-04T15:27:35.475Z,80.75
2019-04-04T15:30:40.741Z,81.46
2019-04-04T15:33:46.002Z,81.11
2019-04-04T15:36:51.280Z,81.44
2019-04-04T15:39:56.462Z,80.99
2019-04-04T15:43:01.706Z,81.23
2019-04-04T15:46:07.033Z,82.01
2019-04-04T15:49:12.434Z,82.23
2019-04-04T15:52:17.618Z,82.76
2019-04-04T15:55:22.852Z,82.81
2019-04-04T15:58:28.153Z,82.51
2019-04-04T16:01:33.434Z,83.00
2019-04-04T16:04:38.600Z,82.46
2019-04-04T16:07:43.775Z,82.82
2019-04-04T16:10:49.045Z,83.25
2019-04-04T16:13:54.293Z,82.87
2019-04-04T16:17:00.133Z,82.68
2019-04-04T16:20:05.916Z,83.57
2019-04-04T16:23:11.204Z,82.45
2019-04-04T16:26:17.530Z,81.32
2019-04-04T16:29:22.726Z,81.62
2019-04-04T16:32:27.893Z,82.57
2019-04-04T16:35:33.326Z,83.12
2019-04-04T16:38:38.636Z,83.04
2019-04-04T16:41:43.830Z,82.93
2019-04-04T16:44:49.368Z,83.76
2019-04-04T16:47:54.527Z,84.33
2019-04-04T16:50:59.655Z,84.98
2019-04-04T16:54:05.142Z,84.16
2019-04-04T16:57:10.438Z,85.65
2019-04-04T17:00:16.807Z,84.96
2019-04-04T17:03:22.239Z,85.03
2019-04-04T17:06:27.526Z,86.06
2019-04-04T17:09:33.810Z,84.76
2019-04-04T17:12:38.905Z,85.88
2019-04-04T17:15:44.371Z,86.10
2019-04-04T17:18:49.564Z,86.10
2019-04-04T17:21:54.773Z,85.63
2019-04-04T17:24:59.942Z,84.26
2019-04-04T17:28:05.510Z,85.32
2019-04-04T17:31:11.221Z,85.88
2019-04-04T17:34:17.949Z,85.85
2019-04-04T17:37:23.164Z,85.68
2019-04-04T17:40:28.504Z,86.55
2019-04-04T17:43:33.767Z,86.97
2019-04-04T17:46:39.066Z,86.14
2019-04-04T17:49:44.425Z,85.72
2019-04-04T17:52:49.708Z,85.78
2019-04-04T17:55:56.071Z,86.40
2019-04-04T17:59:01.421Z,86.74
2019-04-04T18:02:06.779Z,87.36
2019-04-04T18:05:12.058Z,87.23
2019-04-04T18:08:17.293Z,86.64
2019-04-04T18:11:22.656Z,86.26
2019-04-04T18:14:27.937Z,86.55
2019-04-04T18:17:33.408Z,87.04
2019-04-04T18:20:38.635Z,87.17
2019-04-04T18:23:43.907Z,87.23
2019-04-04T18:26:49.254Z,87.41
2019-04-04T18:29:54.514Z,88.05
2019-04-04T18:33:00.085Z,88.02
2019-04-04T18:36:05.762Z,86.82
2019-04-04T18:39:11.804Z,87.58
2019-04-04T18:42:17.315Z,88.37
2019-04-04T18:45:22.865Z,89.23
2019-04-04T18:48:28.103Z,88.57
2019-04-04T18:51:33.468Z,86.64
2019-04-04T18:54:38.683Z,86.87
2019-04-04T18:57:43.998Z,88.03
2019-04-04T19:00:49.315Z,87.58
2019-04-04T19:03:54.633Z,88.10
2019-04-04T19:06:59.843Z,88.57
2019-04-04T19:10:06.359Z,87.40
2019-04-04T19:13:11.729Z,88.20
2019-04-04T19:16:17.121Z,88.13
2019-04-04T19:19:22.435Z,87.12
2019-04-04T19:22:27.699Z,86.52
2019-04-04T19:25:32.974Z,86.89
2019-04-04T19:28:38.254Z,87.83
2019-04-04T19:31:43.614Z,87.94
2019-04-04T19:34:48.732Z,87.79
2019-04-04T19:37:59.958Z,87.95
2019-04-04T19:41:00.929Z,87.77
2019-04-04T19:44:06.574Z,88.49
2019-04-04T19:47:11.689Z,87.53
2019-04-04T19:50:16.910Z,88.44
2019-04-04T19:53:22.188Z,87.62
2019-04-04T19:56:28.517Z,87.39
2019-04-04T19:59:33.713Z,88.32
2019-04-04T20:02:38.872Z,88.49
2019-04-04T20:05:44.609Z,88.54
2019-04-04T20:08:53.426Z,86.64
2019-04-04T20:11:56.874Z,87.18
2019-04-04T20:15:03.171Z,88.26
2019-04-04T20:18:08.906Z,86.83
2019-04-04T20:21:14.241Z,87.70
2019-04-04T20:24:19.698Z,88.18
2019-04-04T20:27:24.898Z,87.65
2019-04-04T20:30:37.455Z,86.81
2019-04-04T20:33:42.775Z,86.22
2019-04-04T20:36:47.957Z,86.62
2019-04-04T20:39:53.337Z,87.24
2019-04-04T20:42:58.625Z,87.55
2019-04-04T20:46:05.004Z,87.35
2019-04-04T20:49:10.346Z,87.81
2019-04-04T20:52:16.803Z,87.72
2019-04-04T20:55:22.013Z,88.28
2019-04-04T20:58:27.342Z,88.23
2019-04-04T21:01:32.658Z,88.16
2019-04-04T21:04:37.856Z,87.39
2019-04-04T21:07:43.122Z,88.23
2019-04-04T21:10:48.411Z,87.72
2019-04-04T21:13:56.446Z,86.65
2019-04-04T21:17:00.812Z,86.58
2019-04-04T21:20:07.806Z,87.34
2019-04-04T21:23:13.087Z,87.24
2019-04-04T21:26:18.282Z,87.61
2019-04-04T21:29:23.502Z,86.26
2019-04-04T21:32:28.836Z,86.07
2019-04-04T21:35:34.036Z,86.46
2019-04-04T21:38:39.322Z,86.73
2019-04-04T21:41:44.651Z,86.64
2019-04-04T21:44:49.834Z,86.44
2019-04-04T21:47:54.979Z,86.54
2019-04-04T21:51:00.118Z,86.44
2019-04-04T21:54:05.316Z,85.98
2019-04-04T21:57:10.557Z,85.07
2019-04-04T22:00:16.021Z,86.27
2019-04-04T22:03:22.813Z,85.27
2019-04-04T22:06:27.898Z,85.93
2019-04-04T22:09:33.871Z,85.71
2019-04-04T22:12:39.280Z,85.45
2019-04-04T22:15:45.084Z,85.35
2019-04-04T22:18:50.265Z,84.66
2019-04-04T22:21:55.700Z,85.59
2019-04-04T22:25:00.883Z,85.69
2019-04-04T22:28:06.056Z,85.49
2019-04-04T22:31:11.334Z,86.32
2019-04-04T22:34:16.619Z,86.64
2019-04-04T22:37:21.758Z,85.78
2019-04-04T22:40:26.907Z,85.61
2019-04-04T22:43:32.013Z,85.58
2019-04-04T22:46:37.319Z,85.14
2019-04-04T22:49:42.741Z,85.11
2019-04-04T22:52:47.839Z,85.48
2019-04-04T22:55:53.046Z,85.62
2019-04-04T22:58:58.228Z,85.28
2019-04-04T23:02:03.546Z,85.33
2019-04-04T23:05:08.918Z,85.07
2019-04-04T23:08:15.078Z,85.75
2019-04-04T23:11:20.421Z,85.75
2019-04-04T23:14:25.761Z,85.23
2019-04-04T23:17:30.921Z,85.46
2019-04-04T23:20:36.059Z,86.16
2019-04-04T23:23:41.206Z,84.79
2019-04-04T23:26:46.384Z,83.96
2019-04-04T23:29:51.599Z,84.33
2019-04-04T23:32:56.928Z,84.42
2019-04-04T23:36:02.106Z,85.04
2019-04-04T23:39:08.137Z,85.12
2019-04-04T23:42:13.499Z,85.18
2019-04-04T23:45:18.642Z,85.55
2019-04-04T23:48:23.943Z,85.51
2019-04-04T23:51:29.061Z,85.63
2019-04-04T23:54:34.170Z,85.72
2019-04-04T23:57:39.402Z,85.64
